Latest Coastal Weather Observations for Kiama

IDN60701

Issued at 3:02 am EST Tuesday 23 April 2024 (issued every 10 minutes, with the page automatically refreshed every 10 minutes)

About coastal observations | Map of coastal stations | Coastal observations for NSW | Marine services | Other Formats
Station Details ID: 068242 Name: KIAMA (BOMBO HEADLAND) Lat: -34.65 Lon: 150.86 Height: 15.5 m
Data from the previous 72 hours. | See also: Recent months at Kiama
Date/Time
EST
Wind Sea
Height
m
Swell Vis
km
Cloud Weather Temp
°C
Press
MSL
hPa
Rain since
9am
mm
Dir  Spd
kts
Gust
kts
Height
m
Period
s
Dir
23/03:00am NW 6 9 - - - - - - - 16.2 - 0.0
23/02:30am NNW 5 7 - - - - - - - 15.5 - 0.0
23/02:00am N 3 6 - - - - - - - 14.9 - 0.0
23/01:30am NNW 5 6 - - - - - - - 15.4 - 0.0
23/01:00am NNW 4 6 - - - - - - - 15.3 - 0.0
23/12:30am NNW 4 5 - - - - - - - 15.8 - 0.0
23/12:00am NNW 5 8 - - - - - - - 16.4 - 0.0
 
Date/Time
EST
Wind Sea
Height
m
Swell Vis
km
Cloud Weather Temp
°C
Press
MSL
hPa
Rain since
9am
mm
Dir  Spd
kts
Gust
kts
Height
m
Period
s
Dir
22/11:30pm NW 5 7 - - - - - - - 16.1 - 0.0
22/11:00pm NW 7 8 - - - - - - - 16.2 - 0.0
22/10:30pm NW 6 7 - - - - - - - 16.3 - 0.0
22/10:00pm WNW 6 8 - - - - - - - 16.6 - 0.0
22/09:30pm WNW 5 7 - - - - - - - 16.4 - 0.0
22/09:00pm NW 3 5 - - - - - - - 16.4 - 0.0
22/08:30pm NW 3 4 - - - - - - - 16.7 - 0.0
22/08:00pm WNW 5 6 - - - - - - - 17.0 - 0.0
22/07:30pm WNW 5 6 - - - - - - - 17.0 - 0.0
22/07:00pm WNW 3 5 - - - - - - - 17.4 - 0.0
22/06:30pm NW 4 5 - - - - - - - 18.3 - 0.0
22/06:00pm NNW 2 4 - - - - - - - 19.1 - 0.0
22/05:30pm N 10 14 - - - - - - - 20.2 - 0.0
22/05:00pm NNE 10 14 - - - - - - - 20.3 - 0.0
22/04:30pm N 10 14 - - - - - - - 20.6 - 0.0
22/04:00pm NNE 8 11 - - - - - - - 20.9 - 0.0
22/03:30pm NE 7 9 - - - - - - - 21.3 - 0.0
22/03:00pm NE 6 8 - - - - - - - 21.4 - 0.0
22/02:30pm NE 6 10 - - - - - - - 21.1 - 0.0
22/02:00pm NE 7 9 - - - - - - - 21.1 - 0.0
22/01:30pm NE 7 10 - - - - - - - 21.1 - 0.0
22/01:00pm NE 8 10 - - - - - - - 21.0 - 0.0
22/12:30pm NE 7 9 - - - - - - - 20.8 - 0.0
22/12:00pm NE 6 8 - - - - - - - 20.9 - 0.0
22/11:30am NE 5 7 - - - - - - - 20.6 - 0.0
22/11:00am NE 5 6 - - - - - - - 20.4 - 0.0
22/10:30am ENE 3 5 - - - - - - - 20.6 - 0.0
22/10:00am E 3 4 - - - - - - - 19.6 - 0.0
22/09:30am SE 1 2 - - - - - - - 19.0 - 0.0
22/09:00am CALM 0 1 - - - - - - - 18.7 - 0.0
22/08:30am W 1 2 - - - - - - - 18.2 - 0.0
22/08:00am W 2 3 - - - - - - - 16.4 - 0.0
22/07:30am W 3 4 - - - - - - - 14.9 - 0.0
22/07:00am WNW 5 6 - - - - - - - 14.0 - 0.0
22/06:30am WNW 4 6 - - - - - - - 13.9 - 0.0
22/06:00am WNW 4 5 - - - - - - - 14.0 - 0.0
22/05:30am W 4 5 - - - - - - - 14.4 - 0.0
22/05:00am WSW 5 6 - - - - - - - 14.5 - 0.0
22/04:30am WSW 5 7 - - - - - - - 14.4 - 0.0
22/04:00am WSW 6 7 - - - - - - - 14.7 - 0.0
22/03:30am SW 5 7 - - - - - - - 15.0 - 0.0
22/03:00am SW 6 8 - - - - - - - 15.3 - 0.0
22/02:30am WSW 5 6 - - - - - - - 14.5 - 0.0
22/02:00am WSW 4 5 - - - - - - - 14.4 - 0.0
22/01:30am WSW 5 6 - - - - - - - 14.9 - 0.0
22/01:00am W 5 5 - - - - - - - 14.8 - 0.0
22/12:30am WSW 3 4 - - - - - - - 14.5 - 0.0
22/12:00am W 6 6 - - - - - - - 15.1 - 0.0
 
Date/Time
EST
Wind Sea
Height
m
Swell Vis
km
Cloud Weather Temp
°C
Press
MSL
hPa
Rain since
9am
mm
Dir  Spd
kts
Gust
kts
Height
m
Period
s
Dir
21/11:30pm W 4 5 - - - - - - - 15.5 - 0.0
21/11:00pm W 4 5 - - - - - - - 15.8 - 0.0
21/10:30pm W 4 5 - - - - - - - 15.6 - 0.0
21/10:00pm W 5 6 - - - - - - - 15.1 - 0.0
21/09:30pm W 5 6 - - - - - - - 15.0 - 0.0
21/09:00pm WSW 4 5 - - - - - - - 15.1 - 0.0
21/08:30pm W 5 5 - - - - - - - 15.0 - 0.0
21/08:00pm W 5 6 - - - - - - - 15.3 - 0.0
21/07:30pm W 4 5 - - - - - - - 15.7 - 0.0
21/07:00pm W 4 5 - - - - - - - 16.2 - 0.0
21/06:30pm CALM 0 0 - - - - - - - 17.1 - 0.0
21/06:00pm ESE 2 3 - - - - - - - 17.6 - 0.0
21/05:30pm SE 3 5 - - - - - - - 18.1 - 0.0
21/05:00pm SE 3 5 - - - - - - - 18.3 - 0.0
21/04:30pm SE 5 7 - - - - - - - 18.4 - 0.0
21/04:00pm SE 5 7 - - - - - - - 19.0 - 0.0
21/03:30pm SE 6 8 - - - - - - - 19.3 - 0.0
21/03:00pm SSE 7 9 - - - - - - - 19.3 - 0.0
21/02:30pm SE 8 9 - - - - - - - 19.4 - 0.0
21/02:00pm SSE 9 12 - - - - - - - 19.3 - 0.0
21/01:30pm SSE 11 14 - - - - - - - 19.1 - 0.0
21/01:00pm SSE 12 14 - - - - - - - 19.1 - 0.0
21/12:30pm SSE 12 15 - - - - - - - 19.0 - 0.0
21/12:00pm S 13 15 - - - - - - - 18.8 - 0.0
21/11:30am S 13 15 - - - - - - - 18.8 - 0.0
21/11:00am S 9 12 - - - - - - - 19.1 - 0.0
21/10:30am S 11 15 - - - - - - - 18.9 - 0.0
21/10:00am SSW 13 16 - - - - - - - 18.7 - 0.0
21/09:30am SSW 14 16 - - - - - - - 18.4 - 0.0
21/09:00am SSW 14 18 - - - - - - - 18.1 - 1.0
21/08:30am SSW 15 19 - - - - - - - 17.7 - 1.0
21/08:00am SSW 12 15 - - - - - - - 17.4 - 1.0
21/07:30am SSW 13 17 - - - - - - - 17.0 - 1.0
21/07:00am SW 13 17 - - - - - - - 17.0 - 1.0
21/06:30am SW 12 15 - - - - - - - 16.7 - 1.0
21/06:00am SW 12 16 - - - - - - Rain 16.7 - 1.0
21/05:30am SW 12 16 - - - - - - - 16.7 - 0.8
21/05:00am SW 9 13 - - - - - - - 16.6 - 0.8
21/04:30am SW 11 16 - - - - - - - 16.5 - 0.8
21/04:00am SW 11 15 - - - - - - - 16.7 - 0.8
21/03:30am SW 11 15 - - - - - - - 16.5 - 0.8
21/03:00am SW 13 18 - - - - - - - 16.8 - 0.8
21/02:30am SW 13 19 - - - - - - - 16.8 - 0.8
21/02:00am SW 14 18 - - - - - - - 17.1 - 0.8
21/01:30am SW 11 15 - - - - - - - 17.1 - 0.8
21/01:00am SSW 12 16 - - - - - - - 17.1 - 0.8
21/12:30am SW 10 13 - - - - - - - 17.1 - 0.8
21/12:00am SSW 10 15 - - - - - - - 17.4 - 0.8
 
Date/Time
EST
Wind Sea
Height
m
Swell Vis
km
Cloud Weather Temp
°C
Press
MSL
hPa
Rain since
9am
mm
Dir  Spd
kts
Gust
kts
Height
m
Period
s
Dir
20/11:30pm SSW 11 15 - - - - - - - 17.5 - 0.8
20/11:00pm SSW 11 14 - - - - - - - 17.4 - 0.8
20/10:30pm SSW 11 13 - - - - - - - 17.4 - 0.8
20/10:00pm SSW 12 16 - - - - - - - 17.7 - 0.8
20/09:30pm SSW 13 18 - - - - - - - 17.4 - 0.8
20/09:00pm SSW 12 16 - - - - - - - 17.3 - 0.8
20/08:30pm SSW 15 21 - - - - - - - 17.9 - 0.8
20/08:00pm S 19 24 - - - - - - - 18.4 - 0.8
20/07:30pm S 21 27 - - - - - - - 18.4 - 0.8
20/07:00pm SSW 21 26 - - - - - - - 18.5 - 0.8
20/06:30pm SSW 21 27 - - - - - - - 18.3 - 0.8
20/06:00pm SSW 21 28 - - - - - - - 18.2 - 0.8
20/05:30pm SSW 20 27 - - - - - - - 18.1 - 0.8
20/05:00pm SSW 18 24 - - - - - - - 17.4 - 0.8
20/04:30pm SSW 18 27 - - - - - - - 17.2 - 0.4
20/04:00pm SSW 20 25 - - - - - - - 17.9 - 0.4
20/03:30pm SSW 21 29 - - - - - - - 18.4 - 0.4
20/03:07pm SSW 15 26 - - - - - - - 18.0 - 0.4
20/03:00pm SSW 18 28 - - - - - - - 17.8 - 0.4
20/02:56pm SSW 21 31 - - - - - - - 18.0 - 0.4
20/02:30pm S 22 29 - - - - - - - 17.9 - 0.4
20/02:00pm S 25 32 - - - - - - - 17.8 - 0.4
20/01:38pm S 22 34 - - - - - - - 17.8 - 0.4
20/01:30pm SSW 24 31 - - - - - - - 18.3 - 0.4
20/01:00pm SSW 23 29 - - - - - - - 18.8 - 0.4
20/12:30pm SSW 21 29 - - - - - - - 18.1 - 0.4
20/12:06pm SSW 16 26 - - - - - - - 17.7 - 0.2
20/12:00pm SSW 15 19 - - - - - - - 17.7 - 0.2
20/11:30am SSW 18 23 - - - - - - - 17.1 - 0.2
20/11:00am SSW 17 24 - - - - - - - 16.4 - 0.2
20/10:30am SSW 16 21 - - - - - - - 16.7 - 0.0
20/10:00am SSW 21 27 - - - - - - - 16.1 - 0.0
20/09:30am SW 20 29 - - - - - - - 15.9 - 0.0
20/09:00am SW 17 24 - - - - - - - 15.8 - 7.0
20/08:41am SSW 17 27 - - - - - - - 15.9 - 7.0
20/08:30am SSW 18 26 - - - - - - - 16.0 - 7.0
20/08:00am SSW 19 25 - - - - - - - 16.4 - 7.0
20/07:30am SW 20 27 - - - - - - - 15.5 - 7.0
20/07:00am SW 20 29 - - - - - - - 15.4 - 7.0
20/06:30am SW 21 26 - - - - - - - 15.3 - 7.0
20/06:00am SW 20 26 - - - - - - Recent precip. 15.4 - 6.4
20/05:38am SSW 18 28 - - - - - - - 15.0 - 6.2
20/05:30am SW 21 28 - - - - - - - 15.3 - 5.2
20/05:00am SW 19 26 - - - - - - - 15.2 - 5.2
20/04:30am SW 19 27 - - - - - - - 15.2 - 4.4
20/04:09am SW 16 26 - - - - - - - 14.9 - 1.6
20/04:00am SW 19 26 - - - - - - - 15.0 - 1.4
20/03:30am SW 19 25 - - - - - - - 15.0 - 1.2

Other formats

Comma delimited format used in spreadsheet applications
http://www.bom.gov.au/fwo/IDN60701/IDN60701.95749.axf

JavaScript Object Notation format (JSON) in row-major order
http://www.bom.gov.au/fwo/IDN60701/IDN60701.95749.json

Data quality

Most of these data are generated automatically and are frequently updated. Quality checks on data are not normally performed. It is possible for incorrect values to appear. Refer to information at About Latest Weather Observations and please check the disclaimer before using these data.